You are not logged in, Click here to log in
ICAO: RPMD Country: Davao City
Latitude: 7.12552 Longitude: 125.646
Total Arrivals: 1 Total Departures: 1
Latest Arrival: BR272 (RPLL-RPMD)ALAN. LIU Latest Departure: FS03 (RPMD-WARR)ALAN. LIU
Scenery:
METAR : RPMD 231900Z 00000KT 9999 FEW016 BKN290 26/24 Q1010 RMK A2983

Francisco Bangoy International Airport